Time;durP1;ratioP1;P1;durP2;ratioP2;P2;SDS_P1;SDS_P2;PMS_P1;PMS_P2;Temp;Humidity;BMP_temperature;BMP_pressure;BME280_temperature;BME280_humidity;BME280_pressure;Samples;Min_cycle;Max_cycle;Signal;HPM_P1;HPM_P2
2024/03/16 00:02:16;;;;;;;20.13;4.38;;;12.50;82.60;;;;;;9178844;19;20053;-68
2024/03/16 00:05:21;;;;;;;19.02;3.97;;;12.50;82.50;;;;;;9180129;19;20003;-68
2024/03/16 00:08:29;;;;;;;25.02;3.83;;;12.50;82.50;;;;;;9174867;19;20018;-68
2024/03/16 00:11:35;;;;;;;22.90;3.42;;;12.50;82.50;;;;;;9179061;19;20010;-68
2024/03/16 00:14:43;;;;;;;18.58;3.58;;;12.50;82.50;;;;;;9175091;19;20015;-68
2024/03/16 00:17:52;;;;;;;20.98;3.03;;;12.50;82.60;;;;;;9175718;19;20026;-68
2024/03/16 00:21:00;;;;;;;20.77;3.97;;;12.50;82.60;;;;;;9178748;19;20011;-67
2024/03/16 00:24:07;;;;;;;21.23;3.90;;;12.50;82.50;;;;;;9179281;19;20015;-68
2024/03/16 00:27:14;;;;;;;15.05;2.95;;;12.50;82.60;;;;;;9177766;19;20018;-68
2024/03/16 00:30:20;;;;;;;20.63;3.47;;;12.50;82.50;;;;;;9178299;19;20019;-68
2024/03/16 00:33:30;;;;;;;21.55;4.10;;;12.50;82.40;;;;;;9176664;19;20038;-68
2024/03/16 00:36:36;;;;;;;26.55;3.88;;;12.50;82.40;;;;;;9171485;19;20487;-68
2024/03/16 00:39:44;;;;;;;18.10;2.30;;;12.50;82.40;;;;;;9176666;19;20023;-68
2024/03/16 00:42:50;;;;;;;18.77;3.22;;;12.50;82.40;;;;;;9176987;19;20021;-68
2024/03/16 00:45:58;;;;;;;18.40;3.28;;;12.50;82.40;;;;;;9176445;19;20139;-68
2024/03/16 00:49:06;;;;;;;26.15;3.63;;;12.50;82.30;;;;;;9176535;19;20014;-68
2024/03/16 00:52:14;;;;;;;23.45;3.58;;;12.50;82.30;;;;;;9172954;19;20025;-68
2024/03/16 00:55:19;;;;;;;24.27;3.30;;;12.50;82.20;;;;;;9177430;19;20037;-68
2024/03/16 00:58:27;;;;;;;19.27;2.60;;;12.50;82.20;;;;;;9173459;19;20018;-68
2024/03/16 01:01:34;;;;;;;24.13;3.97;;;12.50;82.20;;;;;;9175900;19;20011;-67
2024/03/16 01:04:44;;;;;;;17.17;2.90;;;12.50;82.20;;;;;;9177776;19;20349;-67
2024/03/16 01:07:50;;;;;;;12.48;2.85;;;12.50;82.20;;;;;;9176025;19;20019;-67
2024/03/16 01:10:57;;;;;;;22.63;3.17;;;12.50;82.30;;;;;;9175371;19;20074;-67
2024/03/16 01:14:04;;;;;;;19.13;3.38;;;12.50;82.80;;;;;;9175277;19;20018;-67
2024/03/16 01:17:12;;;;;;;14.10;2.55;;;12.50;82.30;;;;;;9174774;19;20011;-67
2024/03/16 01:20:20;;;;;;;17.63;3.20;;;12.50;82.20;;;;;;9175497;19;20006;-67
2024/03/16 01:23:30;;;;;;;13.93;3.25;;;12.50;82.30;;;;;;9175163;19;20022;-67
2024/03/16 01:26:35;;;;;;;14.38;3.53;;;12.50;82.20;;;;;;9175676;19;20014;-68
2024/03/16 01:29:42;;;;;;;20.02;5.45;;;12.50;82.20;;;;;;9174482;19;20487;-67
2024/03/16 01:32:48;;;;;;;24.08;3.17;;;12.50;82.30;;;;;;9174230;19;20022;-67
2024/03/16 01:35:58;;;;;;;24.88;4.30;;;12.50;82.20;;;;;;9174555;19;20015;-67
2024/03/16 01:39:05;;;;;;;24.85;5.25;;;12.50;82.30;;;;;;9173092;19;20018;-67
2024/03/16 01:42:13;;;;;;;20.33;4.35;;;12.50;82.30;;;;;;9174521;19;20018;-67
2024/03/16 01:45:19;;;;;;;14.75;3.63;;;12.40;82.40;;;;;;9176033;19;20018;-67
2024/03/16 01:48:29;;;;;;;23.23;4.60;;;12.50;82.40;;;;;;9174846;19;20415;-67
2024/03/16 01:51:38;;;;;;;17.80;3.75;;;12.40;82.40;;;;;;9171247;19;20018;-67
2024/03/16 01:54:45;;;;;;;21.63;3.80;;;12.40;82.40;;;;;;9175450;19;20380;-68
2024/03/16 01:57:51;;;;;;;22.55;4.20;;;12.40;82.40;;;;;;9173641;19;20018;-68
2024/03/16 02:00:59;;;;;;;18.42;3.75;;;12.40;82.40;;;;;;9173309;19;20024;-67
2024/03/16 02:04:04;;;;;;;18.80;3.83;;;12.40;82.50;;;;;;9173847;19;20018;-67
2024/03/16 02:07:15;;;;;;;21.02;4.35;;;12.40;82.50;;;;;;9174467;19;20530;-68
2024/03/16 02:10:21;;;;;;;17.02;3.92;;;12.30;82.50;;;;;;9172765;19;20482;-68
2024/03/16 02:13:48;;;;;;;13.55;3.88;;;12.30;82.60;;;;;;9173628;19;20480;-67
2024/03/16 02:16:55;;;;;;;21.35;4.80;;;12.40;82.60;;;;;;9173005;19;20070;-68
2024/03/16 02:20:03;;;;;;;21.15;4.70;;;12.30;82.70;;;;;;9168980;19;20021;-67
2024/03/16 02:23:11;;;;;;;24.17;5.13;;;12.30;82.70;;;;;;9173217;19;20047;-67
2024/03/16 02:26:18;;;;;;;26.75;5.57;;;12.30;82.80;;;;;;9174756;19;20801;-67
2024/03/16 02:29:24;;;;;;;17.30;4.90;;;12.30;82.70;;;;;;9173359;19;20086;-68
2024/03/16 02:32:32;;;;;;;24.60;5.97;;;12.30;82.80;;;;;;9172729;19;20022;-67
2024/03/16 02:35:38;;;;;;;27.05;5.68;;;12.30;82.70;;;;;;9173664;19;20475;-68
2024/03/16 02:38:48;;;;;;;21.00;5.85;;;12.30;82.80;;;;;;9177900;19;20019;-67
2024/03/16 02:41:55;;;;;;;26.20;6.50;;;12.30;82.90;;;;;;9183083;19;20022;-68
2024/03/16 02:45:03;;;;;;;34.05;7.63;;;12.20;82.90;;;;;;9181774;19;20487;-67
2024/03/16 02:48:11;;;;;;;20.00;6.38;;;12.20;82.90;;;;;;9180983;19;20026;-68
2024/03/16 02:51:18;;;;;;;26.15;5.88;;;12.20;83.00;;;;;;9178324;19;20015;-67
2024/03/16 02:54:26;;;;;;;25.85;6.22;;;12.20;83.00;;;;;;9181564;19;20121;-68
2024/03/16 02:57:34;;;;;;;21.63;7.38;;;12.20;83.00;;;;;;9178908;19;20026;-67
2024/03/16 03:00:40;;;;;;;22.65;6.78;;;12.20;83.20;;;;;;9180276;19;20042;-67
2024/03/16 03:03:47;;;;;;;28.23;6.43;;;12.10;83.10;;;;;;9180674;19;20326;-67
2024/03/16 03:06:54;;;;;;;33.95;8.00;;;12.10;83.10;;;;;;9182018;19;20010;-67
2024/03/16 03:10:05;;;;;;;24.17;6.72;;;12.10;83.20;;;;;;9181847;19;20090;-67
2024/03/16 03:13:10;;;;;;;21.75;7.50;;;12.10;83.30;;;;;;9181621;19;20066;-67
2024/03/16 03:16:20;;;;;;;27.02;8.07;;;12.10;83.40;;;;;;9181373;19;20011;-68
2024/03/16 03:19:26;;;;;;;22.67;7.25;;;12.10;83.40;;;;;;9178805;19;20006;-67
2024/03/16 03:22:34;;;;;;;26.90;7.82;;;12.10;83.50;;;;;;9181159;19;20030;-67
2024/03/16 03:25:42;;;;;;;29.33;8.02;;;12.10;83.50;;;;;;9179740;19;20014;-67
2024/03/16 03:28:50;;;;;;;29.73;7.45;;;12.00;83.50;;;;;;9179859;19;20014;-67
2024/03/16 03:31:57;;;;;;;19.25;7.15;;;12.10;83.60;;;;;;9181150;19;20018;-67
2024/03/16 03:35:24;;;;;;;22.23;7.22;;;12.00;83.50;;;;;;9179698;19;20036;-67
2024/03/16 03:38:29;;;;;;;21.90;6.90;;;12.10;83.60;;;;;;9177276;19;20014;-67
2024/03/16 03:41:40;;;;;;;19.42;6.20;;;12.10;83.70;;;;;;9179903;19;20018;-67
2024/03/16 03:44:50;;;;;;;21.50;7.15;;;12.10;84.30;;;;;;9180452;19;20051;-67
2024/03/16 03:48:14;;;;;;;9.20;3.53;;;12.00;83.60;;;;;;9176968;19;20011;-67
2024/03/16 03:51:20;;;;;;;8.38;3.10;;;12.00;83.60;;;;;;9176421;19;20452;-67
2024/03/16 03:54:27;;;;;;;8.63;2.97;;;12.00;84.10;;;;;;9177944;19;20006;-68
2024/03/16 03:57:35;;;;;;;8.57;2.72;;;11.90;83.50;;;;;;9178684;19;20011;-68
2024/03/16 04:00:46;;;;;;;13.45;2.90;;;11.80;83.50;;;;;;9175003;19;20006;-68
2024/03/16 04:03:51;;;;;;;4.25;2.50;;;11.80;83.40;;;;;;9179386;19;20642;-67
2024/03/16 04:06:59;;;;;;;6.43;2.53;;;11.80;83.50;;;;;;9179567;19;20019;-67
2024/03/16 04:10:05;;;;;;;6.55;2.33;;;11.70;83.30;;;;;;9177888;19;20078;-67
2024/03/16 04:13:15;;;;;;;7.97;1.55;;;11.60;83.30;;;;;;9178983;19;20384;-68
2024/03/16 04:16:21;;;;;;;3.92;1.33;;;11.60;83.30;;;;;;9179443;19;20025;-68
2024/03/16 04:19:28;;;;;;;5.00;1.30;;;11.60;83.20;;;;;;9175980;19;20073;-67
2024/03/16 04:22:34;;;;;;;2.53;0.70;;;11.50;83.20;;;;;;9178690;19;20011;-68
2024/03/16 04:25:41;;;;;;;5.95;1.20;;;11.40;83.10;;;;;;9177160;19;20484;-67
2024/03/16 04:28:49;;;;;;;3.53;0.90;;;11.30;83.70;;;;;;9176238;19;20007;-67
2024/03/16 04:31:57;;;;;;;2.60;0.95;;;11.30;83.10;;;;;;9178423;19;20029;-67
2024/03/16 04:35:04;;;;;;;3.47;1.00;;;11.20;83.10;;;;;;9178667;19;20026;-67
2024/03/16 04:38:13;;;;;;;1.38;0.88;;;11.20;83.70;;;;;;9174953;19;20019;-67
2024/03/16 04:41:19;;;;;;;2.63;0.77;;;11.10;83.00;;;;;;9175846;19;20010;-67
2024/03/16 04:44:29;;;;;;;3.85;1.10;;;11.10;83.60;;;;;;9176869;19;20014;-67
2024/03/16 04:47:35;;;;;;;5.38;1.30;;;11.00;83.00;;;;;;9178291;19;20524;-67
2024/03/16 04:50:42;;;;;;;11.13;1.30;;;10.90;83.00;;;;;;9170665;19;20019;-67
2024/03/16 04:53:49;;;;;;;8.15;1.35;;;10.90;83.00;;;;;;9176719;19;20017;-68
2024/03/16 04:56:57;;;;;;;4.70;1.20;;;10.90;83.70;;;;;;9177827;19;20022;-67
2024/03/16 05:00:05;;;;;;;2.67;1.40;;;10.80;83.10;;;;;;9173497;19;20594;-67
2024/03/16 05:03:14;;;;;;;3.60;1.35;;;10.80;83.20;;;;;;9177485;19;20019;-67
2024/03/16 05:06:19;;;;;;;4.32;1.38;;;10.70;83.10;;;;;;9176858;19;20058;-67
2024/03/16 05:09:27;;;;;;;4.38;1.17;;;10.70;83.20;;;;;;9176177;19;20366;-67
2024/03/16 05:12:33;;;;;;;9.40;1.52;;;10.70;83.20;;;;;;9177280;19;20025;-67
2024/03/16 05:15:43;;;;;;;5.78;1.20;;;10.60;83.10;;;;;;9176420;19;20376;-68
2024/03/16 05:18:49;;;;;;;4.15;1.20;;;10.60;83.20;;;;;;9175097;19;20011;-67
2024/03/16 05:21:56;;;;;;;8.40;1.77;;;10.50;83.10;;;;;;9174957;19;20357;-67
2024/03/16 05:25:03;;;;;;;8.95;1.40;;;10.50;83.20;;;;;;9174071;19;20018;-67
2024/03/16 05:28:10;;;;;;;2.90;1.02;;;10.50;83.30;;;;;;9176111;19;20022;-67
2024/03/16 05:31:18;;;;;;;4.32;1.20;;;10.40;83.80;;;;;;9176969;19;20757;-67
2024/03/16 05:34:26;;;;;;;11.88;1.55;;;10.40;83.20;;;;;;9174952;19;20474;-67
2024/03/16 05:37:32;;;;;;;7.78;1.30;;;10.40;83.20;;;;;;9174873;19;20086;-67
2024/03/16 05:40:43;;;;;;;5.72;1.60;;;10.30;83.20;;;;;;9173179;19;20503;-67
2024/03/16 05:43:51;;;;;;;7.88;1.58;;;10.30;83.20;;;;;;9174315;19;20022;-67
2024/03/16 05:47:01;;;;;;;6.43;1.25;;;10.30;83.20;;;;;;9174100;19;20094;-67
2024/03/16 05:50:08;;;;;;;3.15;0.95;;;10.20;83.10;;;;;;9168804;19;20014;-67
2024/03/16 05:53:15;;;;;;;8.25;1.92;;;10.10;83.20;;;;;;9171629;19;20514;-67
2024/03/16 05:56:21;;;;;;;2.13;0.90;;;10.10;83.20;;;;;;9174167;19;20456;-67
2024/03/16 05:59:29;;;;;;;5.10;1.00;;;10.00;83.10;;;;;;9173251;19;20014;-67
2024/03/16 06:02:37;;;;;;;6.25;1.35;;;10.00;83.20;;;;;;9174615;19;20020;-67
2024/03/16 06:05:45;;;;;;;5.80;0.93;;;10.00;83.30;;;;;;9174469;19;20022;-67
2024/03/16 06:08:51;;;;;;;7.97;2.75;;;10.00;83.30;;;;;;9174792;19;20401;-67
2024/03/16 06:11:58;;;;;;;3.00;1.02;;;9.90;83.30;;;;;;9171411;19;20019;-66
2024/03/16 06:15:05;;;;;;;4.22;1.10;;;9.90;83.30;;;;;;9172127;19;20496;-67
2024/03/16 06:18:16;;;;;;;5.63;1.65;;;9.90;83.40;;;;;;9172539;19;20022;-67
2024/03/16 06:21:21;;;;;;;5.65;1.48;;;9.80;83.30;;;;;;9170397;19;20019;-67
2024/03/16 06:24:29;;;;;;;6.28;1.27;;;9.80;83.40;;;;;;9172067;19;20029;-67
2024/03/16 06:27:43;;;;;;;6.25;1.40;;;9.70;84.00;;;;;;9172902;19;20015;-67
2024/03/16 06:30:56;;;;;;;8.90;1.20;;;9.80;83.40;;;;;;9173798;19;20515;-67
2024/03/16 06:34:05;;;;;;;8.65;2.20;;;9.70;83.40;;;;;;9173593;19;20018;-67
2024/03/16 06:37:13;;;;;;;12.35;2.08;;;9.70;83.60;;;;;;9172860;19;20050;-69
2024/03/16 06:40:20;;;;;;;11.63;2.97;;;9.70;83.50;;;;;;9171714;19;20018;-69
2024/03/16 06:43:28;;;;;;;17.77;1.92;;;9.70;83.50;;;;;;9171766;19;20483;-67
2024/03/16 06:46:34;;;;;;;5.30;1.52;;;9.60;83.50;;;;;;9172589;19;20014;-68
2024/03/16 06:49:44;;;;;;;13.43;1.90;;;9.60;83.70;;;;;;9168897;19;20765;-68
2024/03/16 06:52:49;;;;;;;13.20;2.30;;;9.60;83.40;;;;;;9173421;19;20134;-68
2024/03/16 06:55:57;;;;;;;15.23;2.10;;;9.60;83.40;;;;;;9173374;19;20018;-67
2024/03/16 06:59:03;;;;;;;14.43;1.90;;;9.60;83.40;;;;;;9171900;19;20114;-67
2024/03/16 07:02:11;;;;;;;13.65;2.33;;;9.60;83.50;;;;;;9169798;19;20014;-67
2024/03/16 07:05:19;;;;;;;10.35;1.75;;;9.60;83.50;;;;;;9172499;19;20046;-67
2024/03/16 07:08:26;;;;;;;6.70;1.55;;;9.60;83.50;;;;;;9171956;19;20490;-67
2024/03/16 07:11:32;;;;;;;9.38;2.17;;;9.60;83.50;;;;;;9171465;19;20111;-66
2024/03/16 07:14:39;;;;;;;25.30;3.13;;;9.60;83.60;;;;;;9171492;19;20019;-67
2024/03/16 07:17:45;;;;;;;13.23;3.00;;;9.60;83.60;;;;;;9172191;19;20154;-66
2024/03/16 07:20:55;;;;;;;14.07;2.67;;;9.60;83.60;;;;;;9170603;19;20499;-68
2024/03/16 07:24:00;;;;;;;13.27;2.30;;;9.60;83.50;;;;;;9177807;19;20025;-67
2024/03/16 07:27:08;;;;;;;10.93;2.55;;;9.60;83.50;;;;;;9180199;19;20018;-68
2024/03/16 07:30:14;;;;;;;14.80;2.60;;;9.60;83.40;;;;;;9180109;19;20015;-67
2024/03/16 07:33:21;;;;;;;10.38;2.42;;;9.60;83.40;;;;;;9181459;19;20021;-66
2024/03/16 07:36:29;;;;;;;13.52;1.63;;;9.60;83.40;;;;;;9181457;19;20026;-67
2024/03/16 07:39:37;;;;;;;10.95;1.90;;;9.50;83.30;;;;;;9176480;19;20106;-67
2024/03/16 07:42:44;;;;;;;16.10;2.47;;;9.60;83.40;;;;;;9177697;19;20031;-67
2024/03/16 07:45:52;;;;;;;11.38;1.65;;;9.50;83.30;;;;;;9180818;19;20030;-68
2024/03/16 07:48:59;;;;;;;11.13;2.03;;;9.50;83.30;;;;;;9179623;19;20027;-68
2024/03/16 07:52:11;;;;;;;10.02;1.92;;;9.50;83.30;;;;;;9175492;19;20022;-68
2024/03/16 07:55:17;;;;;;;8.95;2.30;;;9.50;83.30;;;;;;9179447;19;20048;-66
2024/03/16 07:58:24;;;;;;;10.68;1.73;;;9.50;83.30;;;;;;9179324;19;20531;-67
2024/03/16 08:01:30;;;;;;;10.30;1.80;;;9.50;83.30;;;;;;9178529;19;20100;-66
2024/03/16 08:04:37;;;;;;;12.93;1.95;;;9.50;83.30;;;;;;9179487;19;20014;-65
2024/03/16 08:07:47;;;;;;;6.68;1.88;;;9.50;83.30;;;;;;9179207;19;20006;-66
2024/03/16 08:10:55;;;;;;;5.80;1.65;;;9.50;83.20;;;;;;9178275;19;20360;-67
2024/03/16 08:14:00;;;;;;;14.95;1.67;;;9.50;83.20;;;;;;9179044;19;20952;-67
2024/03/16 08:17:07;;;;;;;7.82;1.70;;;9.50;83.20;;;;;;9178730;19;20126;-67
2024/03/16 08:20:15;;;;;;;9.68;2.30;;;9.50;83.20;;;;;;9176737;19;20047;-66
2024/03/16 08:23:28;;;;;;;7.72;2.05;;;9.50;83.20;;;;;;9175290;19;20018;-66
2024/03/16 08:26:33;;;;;;;11.05;1.92;;;9.50;83.20;;;;;;9177930;19;20361;-67
2024/03/16 08:29:41;;;;;;;23.08;2.63;;;9.40;83.20;;;;;;9178396;19;20361;-67
2024/03/16 08:32:46;;;;;;;12.98;1.92;;;9.50;83.30;;;;;;9178061;19;20018;-67
2024/03/16 08:35:54;;;;;;;9.75;1.83;;;9.50;83.20;;;;;;9171612;19;20018;-67
2024/03/16 08:39:03;;;;;;;7.43;1.88;;;9.50;83.20;;;;;;9175256;19;20022;-66
2024/03/16 08:42:12;;;;;;;17.15;1.95;;;9.50;83.30;;;;;;9175971;19;20030;-66
2024/03/16 08:45:18;;;;;;;16.05;1.50;;;9.50;83.20;;;;;;9177195;19;20021;-66
2024/03/16 08:48:25;;;;;;;10.38;1.70;;;9.60;83.30;;;;;;9177562;19;20025;-67
2024/03/16 08:51:31;;;;;;;11.10;1.75;;;9.60;83.20;;;;;;9174099;19;20456;-66
2024/03/16 08:54:42;;;;;;;11.82;2.20;;;9.60;83.10;;;;;;9177546;19;20018;-66
2024/03/16 08:57:47;;;;;;;5.95;2.05;;;9.60;83.10;;;;;;9176118;19;20010;-67
2024/03/16 09:00:55;;;;;;;15.18;2.13;;;9.70;83.10;;;;;;9175586;19;20563;-67
2024/03/16 09:04:01;;;;;;;9.48;1.55;;;9.70;83.10;;;;;;9174049;19;20018;-67
2024/03/16 09:07:08;;;;;;;10.15;1.67;;;9.70;83.00;;;;;;9175957;19;20029;-66
2024/03/16 09:10:17;;;;;;;13.75;2.42;;;9.70;83.00;;;;;;9174316;19;20014;-66
2024/03/16 09:13:25;;;;;;;3.10;1.08;;;9.80;82.80;;;;;;9176545;19;20028;-67
2024/03/16 09:16:31;;;;;;;11.50;2.25;;;9.80;82.80;;;;;;9175833;19;20014;-66
2024/03/16 09:19:39;;;;;;;17.58;4.50;;;9.80;82.70;;;;;;9171098;19;20025;-66
2024/03/16 09:22:44;;;;;;;18.10;4.60;;;9.80;82.60;;;;;;9174123;19;20426;-66
2024/03/16 09:25:59;;;;;;;17.40;3.70;;;9.90;82.60;;;;;;9175343;19;20017;-66
2024/03/16 09:29:05;;;;;;;10.60;1.65;;;9.90;82.50;;;;;;9174080;19;20595;-67
2024/03/16 09:32:13;;;;;;;7.80;1.10;;;9.90;82.50;;;;;;9173986;19;20007;-67
2024/03/16 09:35:19;;;;;;;10.73;2.05;;;9.90;82.40;;;;;;9175306;19;20014;-67
2024/03/16 09:38:26;;;;;;;8.38;1.50;;;9.90;82.30;;;;;;9173360;19;20015;-67
2024/03/16 09:41:35;;;;;;;8.57;1.30;;;9.90;82.20;;;;;;9172962;19;20475;-67
2024/03/16 09:44:43;;;;;;;8.57;1.67;;;9.90;82.10;;;;;;9174362;19;20019;-66
2024/03/16 09:47:48;;;;;;;11.13;2.03;;;9.90;82.10;;;;;;9170097;19;20021;-67
2024/03/16 09:50:56;;;;;;;8.90;1.60;;;9.90;82.10;;;;;;9167687;19;20014;-67
2024/03/16 09:54:06;;;;;;;8.30;1.27;;;9.90;81.90;;;;;;9172209;19;20021;-67
2024/03/16 09:57:17;;;;;;;9.20;1.70;;;9.90;81.90;;;;;;9173356;19;20014;-67
2024/03/16 10:00:22;;;;;;;8.02;1.95;;;9.90;81.80;;;;;;9170171;19;20015;-67
2024/03/16 10:03:28;;;;;;;7.82;1.63;;;10.00;81.80;;;;;;9169794;19;20029;-67
2024/03/16 10:06:35;;;;;;;5.88;1.63;;;10.00;81.70;;;;;;9171751;19;20018;-67
2024/03/16 10:09:53;;;;;;;6.32;1.17;;;10.00;81.60;;;;;;9172101;19;20062;-67
2024/03/16 10:13:08;;;;;;;10.70;2.35;;;10.00;81.50;;;;;;9172236;19;20018;-67
2024/03/16 10:16:15;;;;;;;20.88;2.38;;;10.00;81.50;;;;;;9171536;19;20014;-67
2024/03/16 10:19:20;;;;;;;9.07;1.77;;;10.00;81.50;;;;;;9171509;19;20025;-67
2024/03/16 10:22:26;;;;;;;11.05;1.60;;;10.10;81.50;;;;;;9170258;19;20026;-67
2024/03/16 10:25:30;;;;;;;5.68;1.20;;;10.10;81.50;;;;;;9171136;19;20007;-67
2024/03/16 10:28:39;;;;;;;11.15;1.58;;;10.10;81.30;;;;;;9169833;19;20035;-67
2024/03/16 10:31:44;;;;;;;9.48;1.40;;;10.20;81.30;;;;;;9171568;19;20478;-67
2024/03/16 10:34:51;;;;;;;9.85;1.50;;;10.20;81.30;;;;;;9171353;19;20011;-67
2024/03/16 10:37:55;;;;;;;5.57;1.35;;;10.20;81.10;;;;;;9169603;19;20025;-67
2024/03/16 10:41:05;;;;;;;8.43;1.45;;;10.20;81.60;;;;;;9170917;19;20023;-67
2024/03/16 10:44:14;;;;;;;10.57;0.85;;;10.30;80.90;;;;;;9168102;19;20019;-67
2024/03/16 10:47:20;;;;;;;9.50;1.20;;;10.20;80.70;;;;;;9172211;19;20011;-67
2024/03/16 10:50:27;;;;;;;4.68;1.27;;;10.30;80.70;;;;;;9166535;19;20011;-67
2024/03/16 10:53:34;;;;;;;4.53;1.00;;;10.30;80.70;;;;;;9170340;19;20010;-67
2024/03/16 10:56:39;;;;;;;8.90;1.50;;;10.40;80.60;;;;;;9170138;19;20017;-67
2024/03/16 10:59:51;;;;;;;10.40;1.42;;;10.40;80.50;;;;;;9178629;19;20645;-67
2024/03/16 11:03:07;;;;;;;16.50;2.50;;;10.40;80.30;;;;;;9178183;19;20014;-67
2024/03/16 11:06:21;;;;;;;10.20;1.45;;;10.40;80.20;;;;;;9179317;19;20472;-67
2024/03/16 11:09:27;;;;;;;7.63;1.60;;;10.50;80.20;;;;;;9180258;19;20017;-67
2024/03/16 11:12:37;;;;;;;11.38;1.80;;;10.50;80.20;;;;;;9179885;19;20021;-69
2024/03/16 11:15:44;;;;;;;4.38;1.42;;;10.50;80.20;;;;;;9178920;19;20472;-67
2024/03/16 11:18:52;;;;;;;10.23;3.63;;;10.50;80.00;;;;;;9179270;19;20010;-67
2024/03/16 11:21:57;;;;;;;9.13;2.25;;;10.60;80.00;;;;;;9179047;19;20011;-67
2024/03/16 11:25:06;;;;;;;8.13;1.77;;;10.60;79.90;;;;;;9175747;19;20015;-67
2024/03/16 11:28:13;;;;;;;5.25;1.60;;;10.60;79.80;;;;;;9179307;19;20364;-67
2024/03/16 11:31:36;;;;;;;3.97;0.88;;;10.70;79.90;;;;;;9178999;19;20739;-67
2024/03/16 11:34:42;;;;;;;5.88;1.00;;;10.70;79.60;;;;;;9178132;19;20018;-67
2024/03/16 11:37:50;;;;;;;4.35;1.30;;;10.80;79.60;;;;;;9177137;19;20014;-67
2024/03/16 11:40:54;;;;;;;5.85;1.45;;;10.80;79.40;;;;;;9177879;19;20022;-67
2024/03/16 11:44:00;;;;;;;6.15;1.60;;;10.90;79.40;;;;;;9176470;19;20045;-67
2024/03/16 11:47:09;;;;;;;9.73;1.00;;;10.90;79.30;;;;;;9177421;19;20011;-67
2024/03/16 11:50:13;;;;;;;6.25;1.15;;;11.00;79.10;;;;;;9173525;19;20015;-67
2024/03/16 11:53:18;;;;;;;4.20;1.42;;;11.00;79.10;;;;;;9179006;19;20018;-67
2024/03/16 11:56:22;;;;;;;9.35;1.30;;;11.10;79.00;;;;;;9177151;19;20026;-67
2024/03/16 11:59:28;;;;;;;4.80;1.15;;;11.10;78.90;;;;;;9176980;19;20032;-67
2024/03/16 12:02:34;;;;;;;4.35;1.00;;;11.10;78.70;;;;;;9176588;19;20478;-67
2024/03/16 12:05:40;;;;;;;3.83;1.00;;;11.10;78.50;;;;;;9176255;19;20018;-67
2024/03/16 12:08:46;;;;;;;8.02;1.00;;;11.20;78.50;;;;;;9174415;19;20033;-67
2024/03/16 12:11:52;;;;;;;6.32;1.02;;;11.20;78.40;;;;;;9176106;19;20086;-67
2024/03/16 12:15:21;;;;;;;6.63;0.88;;;11.30;78.30;;;;;;9176951;19;20014;-67
2024/03/16 12:18:28;;;;;;;7.72;1.48;;;11.30;78.00;;;;;;9176303;19;20314;-63
2024/03/16 12:21:35;;;;;;;8.32;1.50;;;11.40;78.20;;;;;;9172936;19;20014;-67
2024/03/16 12:24:39;;;;;;;10.20;1.08;;;11.40;78.10;;;;;;9171442;19;20814;-67
2024/03/16 12:27:46;;;;;;;5.05;1.05;;;11.40;78.00;;;;;;9175256;19;20010;-67
2024/03/16 12:30:51;;;;;;;9.57;1.30;;;11.40;78.00;;;;;;9175252;19;20025;-67
2024/03/16 12:33:59;;;;;;;7.20;0.88;;;11.40;77.80;;;;;;9175161;19;20022;-67
2024/03/16 12:37:03;;;;;;;5.18;1.25;;;11.50;77.70;;;;;;9175333;19;20025;-67
2024/03/16 12:40:11;;;;;;;10.27;3.22;;;11.50;77.70;;;;;;9175099;19;20014;-69
2024/03/16 12:43:16;;;;;;;12.10;3.60;;;11.50;77.60;;;;;;9174102;19;20468;-67
2024/03/16 12:46:20;;;;;;;7.53;1.80;;;11.50;77.60;;;;;;9174985;19;20630;-67
2024/03/16 12:49:27;;;;;;;10.52;1.70;;;11.60;77.60;;;;;;9169778;19;20026;-67
2024/03/16 12:52:30;;;;;;;6.03;1.00;;;11.60;77.40;;;;;;9170856;19;20013;-67
2024/03/16 12:55:35;;;;;;;6.38;1.08;;;11.60;77.50;;;;;;9172011;19;20014;-67
2024/03/16 12:58:41;;;;;;;4.90;1.02;;;11.70;77.40;;;;;;9172692;19;20022;-67
2024/03/16 13:01:45;;;;;;;6.70;1.35;;;11.70;77.40;;;;;;9170588;19;20407;-67
2024/03/16 13:04:56;;;;;;;13.60;1.88;;;11.70;77.20;;;;;;9166745;19;20010;-67
2024/03/16 13:07:58;;;;;;;5.50;1.23;;;11.80;77.20;;;;;;9171776;19;20086;-67
2024/03/16 13:11:04;;;;;;;6.15;1.25;;;11.80;77.20;;;;;;9175166;19;20014;-67
2024/03/16 13:14:07;;;;;;;5.13;1.00;;;11.90;77.10;;;;;;9172782;19;20037;-67
2024/03/16 13:17:13;;;;;;;10.13;1.42;;;11.90;77.00;;;;;;9171232;19;20010;-67
2024/03/16 13:20:17;;;;;;;5.53;1.02;;;11.90;77.00;;;;;;9171759;19;20348;-67
2024/03/16 13:23:24;;;;;;;9.23;1.55;;;12.00;76.90;;;;;;9171813;19;20022;-67
2024/03/16 13:26:27;;;;;;;7.15;1.48;;;12.00;76.80;;;;;;9173918;19;20783;-67
2024/03/16 13:29:34;;;;;;;5.88;1.23;;;12.00;76.80;;;;;;9174098;19;20021;-67
2024/03/16 13:32:38;;;;;;;8.68;1.55;;;12.00;76.60;;;;;;9174451;19;20007;-67
2024/03/16 13:35:50;;;;;;;4.55;0.90;;;12.10;76.60;;;;;;9174442;19;20019;-67
2024/03/16 13:38:53;;;;;;;4.88;1.10;;;12.10;76.50;;;;;;9164850;19;20026;-67
2024/03/16 13:42:01;;;;;;;6.40;1.27;;;12.00;76.40;;;;;;9167085;19;20014;-67
2024/03/16 13:45:07;;;;;;;5.63;0.80;;;12.00;76.20;;;;;;9166638;19;20022;-67
2024/03/16 13:48:13;;;;;;;5.40;1.13;;;12.10;76.30;;;;;;9169035;19;20017;-67
2024/03/16 13:51:18;;;;;;;7.97;2.50;;;12.00;76.20;;;;;;9165315;19;20011;-67
2024/03/16 13:54:24;;;;;;;3.42;0.73;;;12.00;76.00;;;;;;9162252;19;20010;-67
2024/03/16 13:57:26;;;;;;;5.65;0.77;;;12.00;76.00;;;;;;9165525;19;20126;-67
2024/03/16 14:00:33;;;;;;;4.43;0.70;;;12.00;76.00;;;;;;9165505;19;20391;-67
2024/03/16 14:03:38;;;;;;;4.50;0.60;;;12.00;76.00;;;;;;9167763;19;20050;-67
2024/03/16 14:06:46;;;;;;;7.20;1.25;;;11.90;75.90;;;;;;9169995;19;20022;-67
2024/03/16 14:09:48;;;;;;;4.03;1.10;;;11.90;75.80;;;;;;9172655;19;20014;-67
2024/03/16 14:12:56;;;;;;;5.03;0.80;;;11.90;75.80;;;;;;9170863;19;20015;-67
2024/03/16 14:15:58;;;;;;;6.28;1.55;;;11.90;75.80;;;;;;9172336;19;20015;-67
2024/03/16 14:19:04;;;;;;;3.92;1.05;;;11.90;75.80;;;;;;9171731;19;20582;-67
2024/03/16 14:22:12;;;;;;;3.78;0.73;;;11.90;75.90;;;;;;9172660;19;20049;-68
2024/03/16 14:25:16;;;;;;;4.82;1.33;;;11.90;75.70;;;;;;9169905;19;20038;-68
2024/03/16 14:28:20;;;;;;;3.05;0.68;;;11.90;75.70;;;;;;9171672;19;20021;-68
2024/03/16 14:31:27;;;;;;;4.25;0.73;;;12.00;76.20;;;;;;9172119;19;20356;-67
2024/03/16 14:34:29;;;;;;;6.13;1.15;;;12.10;75.60;;;;;;9174940;19;20021;-68
2024/03/16 14:37:38;;;;;;;7.80;1.42;;;12.00;75.50;;;;;;9174051;19;20014;-68
2024/03/16 14:40:42;;;;;;;5.57;0.95;;;12.00;75.50;;;;;;9179984;19;20003;-68
2024/03/16 14:43:48;;;;;;;7.38;1.38;;;12.00;75.60;;;;;;9180022;19;20015;-67
2024/03/16 14:46:52;;;;;;;4.38;1.00;;;12.00;75.50;;;;;;9179176;19;20039;-67
2024/03/16 14:49:56;;;;;;;6.60;1.40;;;12.10;75.60;;;;;;9176252;19;20015;-67
2024/03/16 14:53:05;;;;;;;6.22;1.10;;;12.10;75.50;;;;;;9180163;19;20076;-67
2024/03/16 14:56:12;;;;;;;4.90;0.93;;;12.10;75.30;;;;;;9179671;19;20014;-67
2024/03/16 14:59:15;;;;;;;8.63;2.65;;;12.20;75.40;;;;;;9178659;19;20023;-67
2024/03/16 15:02:22;;;;;;;13.90;2.30;;;12.20;75.30;;;;;;9179013;19;21024;-67
2024/03/16 15:05:25;;;;;;;5.13;1.05;;;12.20;75.30;;;;;;9177411;19;20015;-67
2024/03/16 15:08:35;;;;;;;2.92;1.02;;;12.20;75.20;;;;;;9177793;19;20010;-67
2024/03/16 15:11:36;;;;;;;9.15;0.90;;;12.20;75.00;;;;;;9179850;19;21535;-67
2024/03/16 15:14:43;;;;;;;6.80;1.35;;;12.20;75.00;;;;;;9178901;19;20021;-67
2024/03/16 15:17:48;;;;;;;12.75;1.15;;;12.20;75.00;;;;;;9176144;19;20019;-67
2024/03/16 15:20:52;;;;;;;8.07;1.40;;;12.20;74.90;;;;;;9175289;19;20021;-66
2024/03/16 15:23:59;;;;;;;2.85;0.75;;;12.20;74.80;;;;;;9178110;19;20014;-66
2024/03/16 15:27:27;;;;;;;6.93;0.82;;;12.20;74.70;;;;;;9176821;19;20487;-66
2024/03/16 15:30:31;;;;;;;6.22;0.77;;;12.20;74.90;;;;;;9176701;19;20026;-67
2024/03/16 15:33:37;;;;;;;9.32;1.25;;;12.20;74.60;;;;;;9176567;19;20011;-66
2024/03/16 15:36:41;;;;;;;5.60;1.73;;;12.10;74.40;;;;;;9168574;19;20010;-68
2024/03/16 15:39:50;;;;;;;11.48;2.03;;;12.10;74.40;;;;;;9166817;19;20365;-67
2024/03/16 15:42:52;;;;;;;4.95;2.10;;;12.10;74.30;;;;;;9173154;19;20019;-68
2024/03/16 15:45:58;;;;;;;6.40;2.15;;;12.00;74.30;;;;;;9169790;19;20002;-68
2024/03/16 15:49:03;;;;;;;6.80;1.45;;;12.10;74.40;;;;;;9175981;19;20022;-67
2024/03/16 15:52:11;;;;;;;3.70;1.45;;;12.00;74.30;;;;;;9170583;19;20025;-67
2024/03/16 15:55:18;;;;;;;16.27;2.60;;;12.00;74.30;;;;;;9171393;19;20011;-67
2024/03/16 15:58:22;;;;;;;8.23;1.80;;;12.00;74.30;;;;;;9176334;19;20014;-68
2024/03/16 16:01:28;;;;;;;10.45;2.08;;;11.90;74.30;;;;;;9175459;19;20420;-68
2024/03/16 16:04:33;;;;;;;6.53;1.65;;;11.90;74.30;;;;;;9174628;19;20018;-68
2024/03/16 16:07:38;;;;;;;8.02;1.60;;;11.90;74.40;;;;;;9173278;19;20018;-68
2024/03/16 16:10:45;;;;;;;5.20;1.15;;;11.90;74.50;;;;;;9174750;19;20433;-67
2024/03/16 16:13:49;;;;;;;4.32;1.25;;;11.80;74.40;;;;;;9175176;19;20025;-68